createdAt,value
2022-09-12T00:01:51.871Z,11.48
2022-09-12T00:04:24.005Z,10.77
2022-09-12T00:06:57.705Z,11.55
2022-09-12T00:09:29.799Z,11.40
2022-09-12T00:12:02.036Z,11.55
2022-09-12T00:14:35.217Z,12.45
2022-09-12T00:17:07.136Z,11.57
2022-09-12T00:19:39.393Z,11.25
2022-09-12T00:22:11.319Z,10.88
2022-09-12T00:24:43.381Z,12.05
2022-09-12T00:27:15.435Z,11.85
2022-09-12T00:29:47.678Z,13.00
2022-09-12T00:32:20.078Z,11.70
2022-09-12T00:34:52.591Z,11.27
2022-09-12T00:37:24.575Z,11.50
2022-09-12T00:39:57.459Z,10.88
2022-09-12T00:42:29.529Z,11.35
2022-09-12T00:45:01.634Z,11.60
2022-09-12T00:47:35.743Z,11.95
2022-09-12T00:50:12.534Z,11.35
2022-09-12T00:52:45.425Z,10.75
2022-09-12T00:55:31.431Z,12.63
2022-09-12T00:58:16.884Z,12.30
2022-09-12T01:00:53.931Z,12.23
2022-09-12T01:03:27.508Z,12.65
2022-09-12T01:06:26.018Z,11.82
2022-09-12T01:09:03.904Z,12.05
2022-09-12T01:11:38.556Z,10.70
2022-09-12T01:14:10.926Z,14.43
2022-09-12T01:16:45.847Z,13.63
2022-09-12T01:19:36.350Z,11.68
2022-09-12T01:22:47.280Z,14.05
2022-09-12T01:26:16.583Z,10.88
2022-09-12T01:29:19.883Z,11.45
2022-09-12T01:32:23.668Z,11.73
2022-09-12T01:35:16.626Z,11.63
2022-09-12T01:38:15.102Z,12.20
2022-09-12T01:41:06.591Z,12.27
2022-09-12T01:43:54.991Z,11.52
2022-09-12T01:46:59.662Z,12.55
2022-09-12T01:49:46.341Z,10.63
2022-09-12T01:52:52.154Z,11.38
2022-09-12T01:55:33.774Z,11.45
2022-09-12T01:58:45.571Z,10.75
2022-09-12T02:01:30.712Z,11.48
2022-09-12T02:04:14.909Z,13.32
2022-09-12T02:06:59.877Z,11.10
2022-09-12T02:09:50.567Z,12.43
2022-09-12T02:12:34.627Z,12.70
2022-09-12T02:15:17.237Z,12.30
2022-09-12T02:17:54.246Z,11.80
2022-09-12T02:20:49.306Z,13.00
2022-09-12T02:23:29.166Z,10.75
2022-09-12T02:26:10.507Z,12.60
2022-09-12T02:28:51.961Z,12.98
2022-09-12T02:31:27.808Z,12.85
2022-09-12T02:34:31.015Z,13.35
2022-09-12T02:37:47.677Z,12.20
2022-09-12T02:40:39.964Z,13.23
2022-09-12T02:43:49.852Z,13.68
2022-09-12T02:46:28.452Z,12.52
2022-09-12T02:49:09.418Z,12.93
2022-09-12T02:51:41.859Z,14.30
2022-09-12T02:54:15.806Z,12.45
2022-09-12T02:56:48.638Z,11.98
2022-09-12T02:59:23.617Z,12.45
2022-09-12T03:02:15.023Z,14.10
2022-09-12T03:05:24.953Z,13.43
2022-09-12T03:08:41.176Z,12.68
2022-09-12T03:11:44.812Z,12.30
2022-09-12T03:15:01.717Z,12.43
2022-09-12T03:17:51.696Z,12.82
2022-09-12T03:21:02.012Z,12.25
2022-09-12T03:24:12.510Z,12.57
2022-09-12T03:27:29.976Z,12.57
2022-09-12T03:30:06.993Z,12.82
2022-09-12T03:32:47.291Z,12.65
2022-09-12T03:35:24.219Z,12.55
2022-09-12T03:37:56.395Z,13.07
2022-09-12T03:40:28.336Z,12.43
2022-09-12T03:43:00.407Z,12.60
2022-09-12T03:45:32.942Z,12.25
2022-09-12T03:48:06.293Z,13.23
2022-09-12T03:50:39.015Z,12.20
2022-09-12T03:53:14.072Z,11.95
2022-09-12T03:55:48.958Z,11.85
2022-09-12T03:58:21.180Z,11.68
2022-09-12T04:00:53.332Z,12.77
2022-09-12T04:03:25.492Z,12.02
2022-09-12T04:05:58.086Z,12.38
2022-09-12T04:08:29.995Z,12.40
2022-09-12T04:11:14.477Z,12.43
2022-09-12T04:13:47.179Z,12.65
2022-09-12T04:16:19.646Z,11.70
2022-09-12T04:18:51.740Z,11.18
2022-09-12T04:21:25.236Z,11.95
2022-09-12T04:23:57.213Z,12.95
2022-09-12T04:26:29.828Z,11.45
2022-09-12T04:29:02.535Z,11.57
2022-09-12T04:31:34.761Z,12.05
2022-09-12T04:34:07.059Z,12.13
2022-09-12T04:36:39.600Z,12.35
2022-09-12T04:39:12.121Z,12.23
2022-09-12T04:41:44.169Z,11.77
2022-09-12T04:44:16.702Z,13.82
2022-09-12T04:46:48.967Z,14.15
2022-09-12T04:49:20.920Z,12.15
2022-09-12T04:51:55.160Z,12.75
2022-09-12T04:54:27.205Z,13.70
2022-09-12T04:56:59.911Z,12.32
2022-09-12T04:59:36.237Z,12.75
2022-09-12T05:02:09.085Z,12.75
2022-09-12T05:04:41.618Z,10.65
2022-09-12T05:07:13.559Z,12.75
2022-09-12T05:09:45.849Z,11.52
2022-09-12T05:12:17.829Z,10.90
2022-09-12T05:14:49.865Z,12.93
2022-09-12T05:17:22.641Z,17.95
2022-09-12T05:19:55.729Z,13.00
2022-09-12T05:22:28.028Z,13.70
2022-09-12T05:25:00.049Z,12.32
2022-09-12T05:27:32.163Z,12.65
2022-09-12T05:30:05.066Z,12.20
2022-09-12T05:32:37.676Z,11.77
2022-09-12T05:35:09.752Z,13.32
2022-09-12T05:37:43.294Z,13.10
2022-09-12T05:40:17.805Z,13.80
2022-09-12T05:42:50.307Z,13.18
2022-09-12T05:45:22.298Z,14.18
2022-09-12T05:47:54.368Z,12.98
2022-09-12T05:50:26.887Z,16.33
2022-09-12T05:52:59.466Z,14.23
2022-09-12T05:55:33.226Z,16.58
2022-09-12T05:58:05.553Z,14.57
2022-09-12T06:00:38.069Z,16.63
2022-09-12T06:03:10.932Z,16.63
2022-09-12T06:05:43.768Z,21.83
2022-09-12T06:08:18.289Z,19.95
2022-09-12T06:10:50.294Z,17.15
2022-09-12T06:13:22.252Z,19.08
2022-09-12T06:15:54.447Z,19.20
2022-09-12T06:18:30.181Z,19.58
2022-09-12T06:21:08.344Z,20.17
2022-09-12T06:23:42.695Z,17.80
2022-09-12T06:26:18.507Z,19.75
2022-09-12T06:28:56.053Z,17.35
2022-09-12T06:31:33.141Z,17.15
2022-09-12T06:34:08.921Z,16.73
2022-09-12T06:36:49.889Z,14.70
2022-09-12T06:39:23.228Z,14.10
2022-09-12T06:41:55.490Z,13.77
2022-09-12T06:44:27.901Z,12.13
2022-09-12T06:47:00.543Z,11.80
2022-09-12T06:49:34.628Z,11.00
2022-09-12T06:52:07.349Z,11.77
2022-09-12T06:54:39.739Z,10.77
2022-09-12T06:57:11.708Z,9.83
2022-09-12T06:59:43.857Z,9.73
2022-09-12T07:02:16.254Z,9.87
2022-09-12T07:04:49.982Z,11.43
2022-09-12T07:07:22.588Z,9.73
2022-09-12T07:09:57.637Z,9.83
2022-09-12T07:12:30.091Z,9.70
2022-09-12T07:15:01.971Z,10.73
2022-09-12T07:17:34.154Z,9.40
2022-09-12T07:20:06.801Z,9.13
2022-09-12T07:22:39.172Z,10.13
2022-09-12T07:25:53.212Z,9.37
2022-09-12T07:28:28.672Z,8.13
2022-09-12T07:31:14.558Z,10.60
2022-09-12T07:33:53.694Z,9.77
2022-09-12T07:36:26.678Z,11.00
2022-09-12T07:38:59.056Z,9.40
2022-09-12T07:41:33.894Z,8.23
2022-09-12T07:44:08.610Z,8.73
2022-09-12T07:46:40.658Z,9.70
2022-09-12T07:49:12.682Z,9.10
2022-09-12T07:51:44.633Z,8.80
2022-09-12T07:54:16.784Z,17.03
2022-09-12T07:56:49.057Z,8.50
2022-09-12T07:59:35.628Z,9.80
2022-09-12T08:02:17.261Z,8.20
2022-09-12T08:04:49.972Z,8.40
2022-09-12T08:07:22.546Z,7.33
2022-09-12T08:09:54.958Z,8.30
2022-09-12T08:12:29.387Z,8.30
2022-09-12T08:15:03.349Z,9.43
2022-09-12T08:17:35.718Z,6.80
2022-09-12T08:20:07.844Z,8.20
2022-09-12T08:22:40.745Z,6.67
2022-09-12T08:25:14.378Z,9.00
2022-09-12T08:27:46.893Z,9.10
2022-09-12T08:30:19.079Z,7.60
2022-09-12T08:32:51.212Z,6.40
2022-09-12T08:35:23.164Z,9.13
2022-09-12T08:37:55.234Z,6.30
2022-09-12T08:40:28.131Z,6.70
2022-09-12T08:43:14.069Z,6.37
2022-09-12T08:46:09.552Z,6.50
2022-09-12T08:48:48.432Z,5.60
2022-09-12T08:51:20.871Z,8.40
2022-09-12T08:53:56.356Z,6.40
2022-09-12T08:56:36.249Z,7.20
2022-09-12T08:59:09.687Z,6.63
2022-09-12T09:01:44.693Z,5.60
2022-09-12T09:04:35.069Z,5.60
2022-09-12T09:07:55.595Z,5.87
2022-09-12T09:10:55.573Z,5.43
2022-09-12T09:14:26.771Z,6.63
2022-09-12T09:17:31.180Z,5.07
2022-09-12T09:20:32.333Z,4.33
2022-09-12T09:23:21.745Z,4.00
2022-09-12T09:26:15.164Z,4.37
2022-09-12T09:29:18.394Z,4.13
2022-09-12T09:31:57.716Z,4.10
2022-09-12T09:34:32.140Z,3.80
2022-09-12T09:37:07.614Z,4.00
2022-09-12T09:40:02.298Z,4.00
2022-09-12T09:42:54.198Z,3.73
2022-09-12T09:45:37.462Z,3.57
2022-09-12T09:48:10.215Z,3.50
2022-09-12T09:51:07.051Z,3.63
2022-09-12T09:53:53.763Z,3.17
2022-09-12T09:56:42.437Z,3.17
2022-09-12T09:59:35.529Z,2.83
2022-09-12T10:02:13.688Z,3.77
2022-09-12T10:04:59.027Z,3.60
2022-09-12T10:07:31.136Z,3.00
2022-09-12T10:10:16.233Z,3.27
2022-09-12T10:12:51.388Z,3.20
2022-09-12T10:15:38.954Z,2.80
2022-09-12T10:18:38.448Z,2.60
2022-09-12T10:21:32.142Z,3.20
2022-09-12T10:24:21.492Z,2.80
2022-09-12T10:27:27.933Z,2.97
2022-09-12T10:30:05.835Z,2.77
2022-09-12T10:32:54.014Z,2.50
2022-09-12T10:35:49.584Z,2.63
2022-09-12T10:38:23.200Z,2.90
2022-09-12T10:41:03.590Z,2.77
2022-09-12T10:43:42.335Z,3.20
2022-09-12T10:46:23.716Z,2.73
2022-09-12T10:49:24.805Z,3.10
2022-09-12T10:52:20.422Z,3.10
2022-09-12T10:54:54.795Z,2.83
2022-09-12T10:58:01.974Z,2.60
2022-09-12T11:01:06.321Z,3.20
2022-09-12T11:04:37.757Z,2.93
2022-09-12T11:07:35.817Z,3.30
2022-09-12T11:10:35.616Z,2.90
2022-09-12T11:13:57.710Z,3.93
2022-09-12T11:16:56.383Z,2.90
2022-09-12T11:20:38.994Z,2.40
2022-09-12T11:24:02.397Z,2.90
2022-09-12T11:27:04.383Z,2.40
2022-09-12T11:30:06.823Z,3.20
2022-09-12T11:33:31.434Z,2.47
2022-09-12T11:36:49.715Z,2.20
2022-09-12T11:39:45.322Z,2.27
2022-09-12T11:42:26.132Z,2.90
2022-09-12T11:45:15.549Z,2.00
2022-09-12T11:47:59.899Z,2.20
2022-09-12T11:50:38.799Z,1.97
2022-09-12T11:53:23.836Z,2.00
2022-09-12T11:56:10.016Z,2.77
2022-09-12T11:59:09.586Z,1.87
2022-09-12T12:01:54.786Z,2.33
2022-09-12T12:04:39.889Z,2.90
2022-09-12T12:07:25.187Z,2.00
2022-09-12T12:09:57.613Z,1.80
2022-09-12T12:12:29.882Z,1.70
2022-09-12T12:15:02.416Z,1.93
2022-09-12T12:17:34.953Z,2.10
2022-09-12T12:20:20.314Z,1.90
2022-09-12T12:22:55.050Z,1.90
2022-09-12T12:25:41.272Z,2.10
2022-09-12T12:28:44.361Z,3.00
2022-09-12T12:31:28.222Z,2.03
2022-09-12T12:34:05.538Z,1.60
2022-09-12T12:36:52.287Z,2.43
2022-09-12T12:39:51.154Z,1.97
2022-09-12T12:42:37.289Z,1.40
2022-09-12T12:45:29.133Z,1.83
2022-09-12T12:48:20.313Z,1.63
2022-09-12T12:50:54.027Z,1.63
2022-09-12T12:53:45.863Z,1.50
2022-09-12T12:56:34.685Z,1.43
2022-09-12T12:59:22.842Z,1.40
2022-09-12T13:01:58.491Z,1.30
2022-09-12T13:04:32.775Z,2.40
2022-09-12T13:07:11.997Z,1.50
2022-09-12T13:09:53.362Z,1.77
2022-09-12T13:12:43.288Z,1.50
2022-09-12T13:15:48.164Z,1.80
2022-09-12T13:18:29.166Z,1.70
2022-09-12T13:21:13.454Z,1.83
2022-09-12T13:24:04.428Z,1.70
2022-09-12T13:26:57.776Z,1.47
2022-09-12T13:29:29.755Z,1.67
2022-09-12T13:32:03.131Z,3.20
2022-09-12T13:34:46.047Z,1.40
2022-09-12T13:37:50.843Z,1.50
2022-09-12T13:41:27.419Z,1.83
2022-09-12T13:44:14.824Z,1.53
2022-09-12T13:46:49.913Z,2.00
2022-09-12T13:49:38.596Z,1.57
2022-09-12T13:52:30.733Z,2.50
2022-09-12T13:55:31.323Z,1.50
2022-09-12T13:58:17.310Z,2.20
2022-09-12T14:01:09.771Z,2.30
2022-09-12T14:04:04.467Z,1.60
2022-09-12T14:06:57.019Z,1.40
2022-09-12T14:09:38.509Z,1.37
2022-09-12T14:12:32.400Z,1.57
2022-09-12T14:15:19.626Z,3.73
2022-09-12T14:18:01.767Z,1.90
2022-09-12T14:20:39.409Z,1.67
2022-09-12T14:23:30.275Z,1.70
2022-09-12T14:26:06.072Z,1.30
2022-09-12T14:28:46.323Z,1.87
2022-09-12T14:31:33.082Z,2.37
2022-09-12T14:34:19.624Z,1.80
2022-09-12T14:36:55.947Z,2.60
2022-09-12T14:39:39.057Z,2.40
2022-09-12T14:42:20.973Z,1.40
2022-09-12T14:45:20.360Z,1.50
2022-09-12T14:47:59.703Z,1.43
2022-09-12T14:50:35.882Z,1.60
2022-09-12T14:53:24.007Z,1.63
2022-09-12T14:56:07.290Z,1.53
2022-09-12T14:58:43.209Z,1.40
2022-09-12T15:01:15.302Z,1.43
2022-09-12T15:03:56.394Z,1.30
2022-09-12T15:06:36.523Z,1.37
2022-09-12T15:09:13.465Z,1.60
2022-09-12T15:11:45.471Z,1.67
2022-09-12T15:14:17.758Z,1.57
2022-09-12T15:16:49.730Z,1.63
2022-09-12T15:19:21.788Z,1.27
2022-09-12T15:21:53.917Z,1.50
2022-09-12T15:24:25.936Z,1.33
2022-09-12T15:26:58.497Z,1.77
2022-09-12T15:29:30.538Z,3.20
2022-09-12T15:32:02.812Z,1.47
2022-09-12T15:34:35.889Z,2.27
2022-09-12T15:37:14.127Z,1.40
2022-09-12T15:39:47.366Z,1.47
2022-09-12T15:42:28.390Z,1.63
2022-09-12T15:45:02.560Z,1.50
2022-09-12T15:47:55.188Z,1.73
2022-09-12T15:50:28.187Z,1.57
2022-09-12T15:53:00.439Z,1.93
2022-09-12T15:55:32.956Z,1.57
2022-09-12T15:58:07.364Z,1.50
2022-09-12T16:00:40.279Z,1.80
2022-09-12T16:03:25.390Z,1.37
2022-09-12T16:06:01.570Z,1.57
2022-09-12T16:08:34.820Z,1.50
2022-09-12T16:11:22.183Z,1.60
2022-09-12T16:13:56.927Z,1.40
2022-09-12T16:16:28.998Z,3.57
2022-09-12T16:19:01.404Z,1.80
2022-09-12T16:21:34.035Z,3.73
2022-09-12T16:24:06.935Z,14.90
2022-09-12T16:26:39.429Z,1.40
2022-09-12T16:29:13.903Z,1.90
2022-09-12T16:31:46.337Z,4.13
2022-09-12T16:34:18.409Z,1.73
2022-09-12T16:36:50.371Z,1.80
2022-09-12T16:39:22.454Z,2.10
2022-09-12T16:41:54.723Z,2.73
2022-09-12T16:44:26.887Z,2.23
2022-09-12T16:46:59.247Z,1.80
2022-09-12T16:49:31.323Z,2.23
2022-09-12T16:52:03.695Z,2.03
2022-09-12T16:54:37.261Z,1.93
2022-09-12T16:57:09.606Z,3.10
2022-09-12T16:59:42.563Z,1.87
2022-09-12T17:02:15.243Z,2.37
2022-09-12T17:04:47.325Z,1.80
2022-09-12T17:07:19.957Z,1.70
2022-09-12T17:09:52.066Z,1.87
2022-09-12T17:12:24.343Z,2.23
2022-09-12T17:14:56.629Z,2.03
2022-09-12T17:17:29.534Z,1.87
2022-09-12T17:20:01.620Z,2.90
2022-09-12T17:22:34.908Z,2.80
2022-09-12T17:25:07.553Z,2.23
2022-09-12T17:27:40.224Z,2.00
2022-09-12T17:30:12.544Z,2.60
2022-09-12T17:32:44.814Z,2.23
2022-09-12T17:35:16.974Z,2.80
2022-09-12T17:37:49.037Z,3.37
2022-09-12T17:40:32.614Z,5.93
2022-09-12T17:43:16.555Z,6.90
2022-09-12T17:45:57.455Z,4.60
2022-09-12T17:48:29.749Z,4.70
2022-09-12T17:51:15.137Z,5.83
2022-09-12T17:53:47.678Z,3.33
2022-09-12T17:56:20.363Z,2.20
2022-09-12T17:58:54.706Z,2.57
2022-09-12T18:01:48.238Z,2.20
2022-09-12T18:04:48.499Z,2.23
2022-09-12T18:07:22.252Z,2.30
2022-09-12T18:09:55.203Z,2.70
2022-09-12T18:12:27.823Z,2.60
2022-09-12T18:15:00.053Z,2.40
2022-09-12T18:17:33.592Z,2.30
2022-09-12T18:20:06.709Z,2.33
2022-09-12T18:22:39.706Z,3.60
2022-09-12T18:25:13.512Z,2.50
2022-09-12T18:27:45.960Z,2.60
2022-09-12T18:30:22.206Z,3.17
2022-09-12T18:32:54.689Z,2.30
2022-09-12T18:35:27.180Z,2.60
2022-09-12T18:38:00.187Z,2.93
2022-09-12T18:40:33.699Z,2.80
2022-09-12T18:43:07.263Z,2.40
2022-09-12T18:45:41.587Z,2.33
2022-09-12T18:48:14.139Z,2.70
2022-09-12T18:50:47.264Z,3.13
2022-09-12T18:53:20.047Z,3.03
2022-09-12T18:55:52.200Z,3.53
2022-09-12T18:58:31.045Z,3.17
2022-09-12T19:01:14.835Z,2.97
2022-09-12T19:03:50.444Z,2.80
2022-09-12T19:06:26.813Z,3.27
2022-09-12T19:09:05.320Z,2.77
2022-09-12T19:11:48.705Z,3.30
2022-09-12T19:14:23.708Z,4.07
2022-09-12T19:16:57.879Z,5.70
2022-09-12T19:19:30.316Z,4.40
2022-09-12T19:22:02.949Z,4.83
2022-09-12T19:24:36.807Z,4.97
2022-09-12T19:27:09.494Z,4.57
2022-09-12T19:29:43.911Z,4.50
2022-09-12T19:32:16.081Z,3.93
2022-09-12T19:34:48.600Z,4.60
2022-09-12T19:37:21.019Z,5.33
2022-09-12T19:39:53.312Z,3.77
2022-09-12T19:42:25.851Z,3.90
2022-09-12T19:44:58.303Z,3.77
2022-09-12T19:47:31.489Z,3.80
2022-09-12T19:50:04.486Z,4.63
2022-09-12T19:52:37.099Z,4.43
2022-09-12T19:55:10.405Z,4.23
2022-09-12T19:57:42.797Z,4.20
2022-09-12T20:00:15.387Z,4.17
2022-09-12T20:02:53.027Z,4.33
2022-09-12T20:05:26.198Z,4.63
2022-09-12T20:07:58.665Z,3.57
2022-09-12T20:10:31.009Z,4.17
2022-09-12T20:13:03.101Z,3.77
2022-09-12T20:15:36.488Z,4.07
2022-09-12T20:18:08.876Z,4.07
2022-09-12T20:20:41.014Z,4.93
2022-09-12T20:23:13.221Z,3.90
2022-09-12T20:25:45.611Z,3.93
2022-09-12T20:28:18.022Z,4.73
2022-09-12T20:30:50.262Z,4.40
2022-09-12T20:33:22.364Z,4.40
2022-09-12T20:36:01.473Z,5.13
2022-09-12T20:38:37.454Z,3.90
2022-09-12T20:41:11.501Z,4.37
2022-09-12T20:43:43.584Z,6.87
2022-09-12T20:46:18.618Z,7.67
2022-09-12T20:48:54.843Z,3.80
2022-09-12T20:51:27.549Z,4.20
2022-09-12T20:54:03.583Z,3.87
2022-09-12T20:56:37.828Z,4.43
2022-09-12T20:59:12.160Z,4.37
2022-09-12T21:01:44.373Z,4.53
2022-09-12T21:04:16.653Z,4.87
2022-09-12T21:06:49.355Z,7.73
2022-09-12T21:09:21.854Z,7.03
2022-09-12T21:11:53.826Z,5.90
2022-09-12T21:14:25.949Z,5.60
2022-09-12T21:16:57.981Z,6.37
2022-09-12T21:19:30.252Z,5.13
2022-09-12T21:22:02.441Z,4.73
2022-09-12T21:24:34.763Z,6.73
2022-09-12T21:27:07.029Z,6.27
2022-09-12T21:29:39.137Z,4.47
2022-09-12T21:32:14.067Z,5.27
2022-09-12T21:34:46.833Z,4.33
2022-09-12T21:37:18.852Z,4.10
2022-09-12T21:39:51.014Z,4.23
2022-09-12T21:42:23.451Z,4.53
2022-09-12T21:44:56.262Z,3.93
2022-09-12T21:47:28.518Z,4.32
2022-09-12T21:50:00.555Z,3.80
2022-09-12T21:52:33.508Z,3.70
2022-09-12T21:55:07.810Z,4.43
2022-09-12T21:57:43.262Z,4.00
2022-09-12T22:00:16.377Z,4.97
2022-09-12T22:02:49.039Z,4.15
2022-09-12T22:05:22.245Z,4.28
2022-09-12T22:07:55.954Z,4.72
2022-09-12T22:10:28.418Z,3.90
2022-09-12T22:13:00.935Z,4.35
2022-09-12T22:15:41.199Z,3.50
2022-09-12T22:18:14.779Z,8.10
2022-09-12T22:20:46.701Z,4.35
2022-09-12T22:23:37.206Z,5.95
2022-09-12T22:26:30.190Z,4.63
2022-09-12T22:29:14.596Z,4.53
2022-09-12T22:31:46.626Z,4.15
2022-09-12T22:34:18.834Z,4.22
2022-09-12T22:36:50.946Z,4.47
2022-09-12T22:39:23.875Z,6.22
2022-09-12T22:42:01.636Z,4.25
2022-09-12T22:44:35.638Z,3.92
2022-09-12T22:47:07.701Z,3.88
2022-09-12T22:49:39.750Z,3.97
2022-09-12T22:52:11.833Z,3.78
2022-09-12T22:54:45.213Z,3.80
2022-09-12T22:57:17.699Z,3.90
2022-09-12T22:59:50.187Z,3.90
2022-09-12T23:02:23.202Z,4.18
2022-09-12T23:04:55.267Z,4.25
2022-09-12T23:07:27.120Z,4.47
2022-09-12T23:09:59.289Z,4.07
2022-09-12T23:12:31.963Z,4.18
2022-09-12T23:15:04.739Z,4.53
2022-09-12T23:17:37.323Z,5.35
2022-09-12T23:20:09.507Z,4.85
2022-09-12T23:22:41.693Z,4.72
2022-09-12T23:25:13.778Z,5.70
2022-09-12T23:27:45.771Z,3.75
2022-09-12T23:30:21.669Z,3.92
2022-09-12T23:32:55.595Z,4.35
2022-09-12T23:35:27.528Z,3.75
2022-09-12T23:37:59.421Z,4.13
2022-09-12T23:40:32.254Z,4.50
2022-09-12T23:43:04.210Z,3.50
2022-09-12T23:45:36.205Z,3.67
2022-09-12T23:48:08.530Z,3.63
2022-09-12T23:50:42.856Z,3.83
2022-09-12T23:53:17.709Z,3.45
2022-09-12T23:55:50.178Z,3.60
2022-09-12T23:58:25.347Z,3.42
